createdAt,value
2023-02-11T00:03:27.541Z,90.06
2023-02-11T00:07:30.575Z,89.80
2023-02-11T00:11:32.929Z,89.89
2023-02-11T00:15:34.631Z,90.13
2023-02-11T00:19:36.541Z,90.43
2023-02-11T00:23:38.374Z,90.29
2023-02-11T00:27:40.179Z,90.27
2023-02-11T00:31:42.165Z,90.35
2023-02-11T00:35:44.037Z,90.93
2023-02-11T00:39:45.765Z,90.65
2023-02-11T00:43:48.097Z,90.81
2023-02-11T00:47:49.823Z,90.90
2023-02-11T00:51:51.584Z,90.72
2023-02-11T00:55:53.259Z,90.33
2023-02-11T00:59:55.331Z,90.50
2023-02-11T01:03:57.328Z,90.86
2023-02-11T01:07:59.326Z,90.62
2023-02-11T01:12:01.072Z,90.51
2023-02-11T01:16:04.159Z,90.54
2023-02-11T01:20:08.260Z,91.19
2023-02-11T01:24:09.997Z,91.39
2023-02-11T01:28:20.184Z,90.90
2023-02-11T01:32:21.952Z,91.61
2023-02-11T01:36:23.739Z,91.67
2023-02-11T01:40:25.553Z,91.80
2023-02-11T01:44:33.159Z,92.32
2023-02-11T01:48:39.278Z,92.65
2023-02-11T01:52:42.701Z,92.62
2023-02-11T01:57:08.491Z,93.10
2023-02-11T02:01:14.918Z,93.27
2023-02-11T02:05:23.448Z,93.14
2023-02-11T02:09:32.508Z,93.99
2023-02-11T02:13:35.382Z,93.92
2023-02-11T02:18:08.268Z,94.74
2023-02-11T02:22:47.160Z,94.97
2023-02-11T02:27:05.998Z,94.74
2023-02-11T02:31:16.516Z,94.40
2023-02-11T02:35:32.452Z,94.31
2023-02-11T02:39:36.614Z,94.84
2023-02-11T02:43:41.795Z,94.46
2023-02-11T02:47:43.640Z,94.51
2023-02-11T02:52:09.596Z,94.20
2023-02-11T02:56:16.735Z,94.58
2023-02-11T03:00:41.922Z,94.67
2023-02-11T03:04:57.612Z,95.04
2023-02-11T03:09:24.324Z,94.94
2023-02-11T03:13:33.661Z,95.11
2023-02-11T03:17:39.117Z,95.26
2023-02-11T03:21:43.945Z,95.44
2023-02-11T03:26:28.600Z,95.47
2023-02-11T03:30:40.452Z,95.90
2023-02-11T03:34:51.542Z,96.08
2023-02-11T03:38:57.058Z,96.00
2023-02-11T03:43:01.356Z,95.86
2023-02-11T03:47:05.848Z,95.79
2023-02-11T03:51:11.013Z,96.08
2023-02-11T03:55:17.704Z,96.16
2023-02-11T03:59:19.730Z,96.04
2023-02-11T04:03:21.495Z,96.28
2023-02-11T04:07:24.147Z,96.52
2023-02-11T04:11:25.921Z,96.92
2023-02-11T04:15:27.764Z,96.76
2023-02-11T04:19:29.540Z,96.75
2023-02-11T04:23:31.228Z,97.07
2023-02-11T04:27:33.009Z,97.00
2023-02-11T04:31:34.795Z,96.87
2023-02-11T04:35:36.554Z,97.29
2023-02-11T04:39:38.279Z,97.23
2023-02-11T04:43:40.026Z,96.96
2023-02-11T04:47:41.725Z,96.91
2023-02-11T04:51:47.545Z,96.67
2023-02-11T04:55:51.656Z,97.24
2023-02-11T04:59:53.641Z,96.90
2023-02-11T05:03:55.409Z,96.95
2023-02-11T05:07:57.351Z,96.93
2023-02-11T05:11:59.040Z,97.38
2023-02-11T05:16:00.924Z,97.24
2023-02-11T05:20:02.695Z,97.12
2023-02-11T05:24:04.783Z,97.37
2023-02-11T05:28:06.820Z,97.46
2023-02-11T05:32:09.195Z,97.33
2023-02-11T05:36:13.585Z,97.53
2023-02-11T05:40:15.457Z,97.85
2023-02-11T05:44:17.235Z,97.90
2023-02-11T05:48:19.071Z,97.96
2023-02-11T05:52:24.364Z,97.87
2023-02-11T05:56:26.081Z,97.72
2023-02-11T06:00:27.895Z,97.99
2023-02-11T06:04:29.689Z,98.51
2023-02-11T06:08:31.396Z,98.76
2023-02-11T06:12:33.617Z,99.53
2023-02-11T06:16:35.363Z,100.00
2023-02-11T06:20:37.516Z,100.00
2023-02-11T06:24:58.918Z,100.00
2023-02-11T06:29:01.208Z,100.00
2023-02-11T06:33:02.997Z,100.00
2023-02-11T06:37:05.183Z,100.00
2023-02-11T06:41:10.341Z,100.00
2023-02-11T06:45:13.428Z,100.00
2023-02-11T06:49:15.307Z,100.00
2023-02-11T06:53:17.140Z,100.00
2023-02-11T06:57:18.881Z,100.00
2023-02-11T07:01:21.375Z,100.00
2023-02-11T07:05:23.197Z,100.00
2023-02-11T07:09:24.938Z,100.00
2023-02-11T07:13:26.725Z,100.00
2023-02-11T07:17:28.562Z,100.00
2023-02-11T07:21:30.855Z,100.00
2023-02-11T07:25:32.600Z,100.00
2023-02-11T07:29:34.935Z,100.00
2023-02-11T07:33:37.363Z,100.00
2023-02-11T07:37:39.100Z,100.00
2023-02-11T07:41:40.900Z,100.00
2023-02-11T07:45:42.615Z,100.00
2023-02-11T07:49:45.271Z,100.00
2023-02-11T07:53:47.519Z,100.00
2023-02-11T07:57:49.252Z,100.00
2023-02-11T08:01:51.642Z,100.00
2023-02-11T08:05:53.538Z,100.00
2023-02-11T08:09:55.669Z,100.00
2023-02-11T08:13:57.671Z,100.00
2023-02-11T08:17:59.502Z,100.00
2023-02-11T08:22:01.527Z,100.00
2023-02-11T08:26:04.963Z,100.00
2023-02-11T08:30:07.332Z,100.00
2023-02-11T08:34:11.607Z,100.00
2023-02-11T08:38:13.368Z,100.00
2023-02-11T08:42:17.842Z,100.00
2023-02-11T08:46:20.261Z,100.00
2023-02-11T08:50:22.178Z,100.00
2023-02-11T08:54:23.909Z,100.00
2023-02-11T08:58:25.610Z,100.00
2023-02-11T09:02:27.443Z,100.00
2023-02-11T09:06:29.892Z,100.00
2023-02-11T09:10:31.564Z,100.00
2023-02-11T09:14:33.563Z,100.00
2023-02-11T09:18:35.345Z,100.00
2023-02-11T09:22:37.093Z,100.00
2023-02-11T09:26:43.379Z,100.00
2023-02-11T09:30:45.189Z,100.00
2023-02-11T09:34:46.970Z,100.00
2023-02-11T09:38:49.165Z,99.97
2023-02-11T09:42:53.562Z,99.97
2023-02-11T09:46:59.842Z,100.00
2023-02-11T09:51:04.208Z,99.68
2023-02-11T09:55:30.711Z,99.56
2023-02-11T09:59:32.533Z,99.31
2023-02-11T10:04:02.422Z,98.63
2023-02-11T10:08:09.967Z,98.74
2023-02-11T10:12:28.672Z,97.82
2023-02-11T10:16:33.564Z,97.57
2023-02-11T10:20:39.415Z,97.10
2023-02-11T10:24:48.568Z,96.83
2023-02-11T10:28:53.990Z,94.84
2023-02-11T10:33:03.377Z,94.48
2023-02-11T10:37:07.241Z,94.33
2023-02-11T10:41:26.344Z,94.36
2023-02-11T10:45:32.423Z,93.56
2023-02-11T10:49:44.457Z,93.67
2023-02-11T10:54:13.887Z,94.08
2023-02-11T10:58:25.262Z,93.65
2023-02-11T11:02:34.727Z,93.66
2023-02-11T11:06:36.722Z,92.39
2023-02-11T11:10:43.767Z,92.69
2023-02-11T11:14:55.611Z,92.33
2023-02-11T11:19:06.442Z,92.36
2023-02-11T11:23:22.831Z,92.14
2023-02-11T11:27:26.033Z,91.78
2023-02-11T11:31:35.814Z,92.12
2023-02-11T11:35:37.734Z,91.23
2023-02-11T11:39:40.576Z,91.23
2023-02-11T11:43:55.240Z,90.86
2023-02-11T11:48:24.143Z,90.58
2023-02-11T11:52:31.877Z,90.19
2023-02-11T11:56:38.145Z,90.35
2023-02-11T12:00:49.163Z,89.79
2023-02-11T12:05:07.874Z,89.80
2023-02-11T12:09:09.533Z,88.80
2023-02-11T12:13:25.696Z,88.99
2023-02-11T12:17:33.639Z,88.38
2023-02-11T12:21:59.365Z,88.85
2023-02-11T12:26:17.929Z,88.72
2023-02-11T12:30:38.757Z,88.27
2023-02-11T12:35:17.359Z,87.83
2023-02-11T12:39:49.843Z,87.76
2023-02-11T12:43:52.105Z,87.51
2023-02-11T12:48:22.668Z,88.02
2023-02-11T12:52:42.453Z,87.84
2023-02-11T12:56:50.996Z,87.47
2023-02-11T13:01:01.105Z,87.08
2023-02-11T13:05:14.352Z,87.42
2023-02-11T13:09:24.790Z,87.52
2023-02-11T13:13:35.968Z,87.42
2023-02-11T13:18:01.207Z,87.77
2023-02-11T13:22:16.704Z,87.52
2023-02-11T13:26:28.752Z,87.91
2023-02-11T13:30:35.525Z,87.54
2023-02-11T13:34:43.213Z,87.35
2023-02-11T13:38:54.109Z,87.42
2023-02-11T13:43:00.328Z,86.73
2023-02-11T13:47:05.515Z,86.73
2023-02-11T13:51:10.734Z,86.22
2023-02-11T13:55:23.393Z,86.63
2023-02-11T13:59:25.053Z,87.05
2023-02-11T14:04:11.731Z,85.69
2023-02-11T14:08:40.954Z,85.94
2023-02-11T14:12:42.849Z,86.15
2023-02-11T14:16:59.800Z,86.35
2023-02-11T14:21:18.306Z,86.43
2023-02-11T14:25:25.544Z,86.79
2023-02-11T14:29:36.093Z,86.59
2023-02-11T14:33:57.572Z,86.41
2023-02-11T14:38:18.122Z,86.26
2023-02-11T14:42:25.522Z,86.77
2023-02-11T14:46:30.354Z,86.51
2023-02-11T14:50:41.603Z,86.59
2023-02-11T14:54:45.248Z,86.72
2023-02-11T14:58:52.001Z,86.47
2023-02-11T15:02:53.914Z,86.50
2023-02-11T15:06:57.631Z,86.71
2023-02-11T15:11:02.816Z,86.49
2023-02-11T15:15:04.895Z,86.71
2023-02-11T15:19:07.676Z,86.21
2023-02-11T15:23:21.936Z,86.49
2023-02-11T15:27:25.885Z,86.43
2023-02-11T15:31:28.521Z,86.20
2023-02-11T15:35:44.535Z,86.23
2023-02-11T15:39:46.303Z,86.65
2023-02-11T15:43:51.136Z,86.46
2023-02-11T15:48:13.772Z,86.70
2023-02-11T15:52:23.859Z,86.84
2023-02-11T15:56:44.718Z,86.77
2023-02-11T16:00:50.015Z,86.75
2023-02-11T16:04:58.553Z,86.85
2023-02-11T16:09:06.726Z,87.04
2023-02-11T16:13:08.380Z,86.79
2023-02-11T16:17:24.239Z,86.85
2023-02-11T16:21:39.000Z,86.72
2023-02-11T16:25:42.556Z,86.77
2023-02-11T16:29:47.813Z,86.96
2023-02-11T16:33:49.526Z,87.07
2023-02-11T16:37:51.331Z,86.95
2023-02-11T16:41:53.117Z,87.50
2023-02-11T16:45:54.810Z,87.29
2023-02-11T16:49:57.646Z,87.44
2023-02-11T16:53:59.416Z,87.46
2023-02-11T16:58:01.284Z,87.71
2023-02-11T17:02:03.090Z,87.58
2023-02-11T17:06:10.295Z,87.76
2023-02-11T17:10:21.083Z,87.91
2023-02-11T17:14:22.809Z,88.07
2023-02-11T17:18:24.677Z,88.17
2023-02-11T17:22:26.380Z,87.75
2023-02-11T17:26:28.140Z,88.28
2023-02-11T17:30:29.955Z,88.11
2023-02-11T17:34:32.484Z,88.40
2023-02-11T17:38:35.645Z,88.18
2023-02-11T17:42:37.366Z,88.28
2023-02-11T17:46:39.191Z,88.13
2023-02-11T17:50:40.959Z,88.16
2023-02-11T17:54:42.647Z,88.48
2023-02-11T17:58:44.630Z,88.49
2023-02-11T18:02:46.388Z,88.72
2023-02-11T18:06:48.106Z,88.62
2023-02-11T18:10:49.866Z,88.91
2023-02-11T18:14:57.547Z,88.73
2023-02-11T18:18:59.787Z,89.16
2023-02-11T18:23:01.811Z,88.78
2023-02-11T18:27:03.877Z,89.37
2023-02-11T18:31:06.787Z,89.25
2023-02-11T18:35:14.814Z,89.33
2023-02-11T18:39:17.530Z,89.39
2023-02-11T18:43:20.355Z,89.65
2023-02-11T18:47:22.055Z,89.75
2023-02-11T18:51:24.167Z,89.39
2023-02-11T18:55:26.120Z,89.97
2023-02-11T18:59:27.929Z,90.00
2023-02-11T19:03:29.692Z,90.18
2023-02-11T19:07:32.584Z,90.16
2023-02-11T19:11:54.346Z,90.08
2023-02-11T19:15:56.253Z,89.92
2023-02-11T19:19:58.060Z,89.97
2023-02-11T19:24:00.914Z,90.44
2023-02-11T19:28:03.520Z,90.06
2023-02-11T19:32:06.265Z,90.61
2023-02-11T19:36:09.747Z,90.16
2023-02-11T19:40:12.531Z,90.37
2023-02-11T19:44:14.472Z,90.23
2023-02-11T19:48:16.220Z,90.31
2023-02-11T19:52:17.917Z,90.69
2023-02-11T19:56:20.911Z,90.44
2023-02-11T20:00:22.801Z,90.78
2023-02-11T20:04:25.244Z,90.94
2023-02-11T20:08:27.091Z,90.38
2023-02-11T20:12:29.016Z,90.66
2023-02-11T20:16:46.801Z,90.90
2023-02-11T20:20:49.564Z,90.55
2023-02-11T20:24:51.338Z,90.93
2023-02-11T20:28:54.944Z,90.72
2023-02-11T20:32:58.553Z,90.98
2023-02-11T20:37:00.676Z,90.82
2023-02-11T20:41:07.940Z,90.71
2023-02-11T20:45:10.705Z,90.64
2023-02-11T20:49:19.009Z,90.96
2023-02-11T20:53:20.750Z,90.83
2023-02-11T20:57:22.504Z,90.89
2023-02-11T21:01:30.892Z,91.13
2023-02-11T21:05:32.681Z,90.91
2023-02-11T21:09:34.537Z,90.86
2023-02-11T21:13:38.000Z,91.18
2023-02-11T21:17:39.731Z,91.31
2023-02-11T21:21:42.056Z,91.29
2023-02-11T21:25:43.766Z,90.98
2023-02-11T21:29:53.847Z,91.14
2023-02-11T21:33:59.389Z,91.45
2023-02-11T21:38:01.431Z,91.41
2023-02-11T21:42:03.453Z,91.25
2023-02-11T21:46:14.615Z,91.18
2023-02-11T21:50:20.056Z,91.49
2023-02-11T21:54:22.003Z,91.50
2023-02-11T21:58:24.034Z,91.22
2023-02-11T22:02:25.898Z,91.02
2023-02-11T22:06:31.158Z,91.33
2023-02-11T22:10:32.976Z,91.46
2023-02-11T22:14:36.050Z,91.12
2023-02-11T22:18:38.155Z,91.55
2023-02-11T22:22:39.829Z,91.25
2023-02-11T22:26:41.580Z,91.04
2023-02-11T22:30:43.328Z,91.30
2023-02-11T22:34:45.147Z,91.13
2023-02-11T22:38:47.497Z,91.27
2023-02-11T22:42:49.258Z,91.01
2023-02-11T22:46:52.608Z,90.97
2023-02-11T22:50:54.612Z,90.85
2023-02-11T22:54:56.369Z,91.35
2023-02-11T22:59:03.627Z,91.30
2023-02-11T23:03:06.589Z,91.39
2023-02-11T23:07:08.529Z,91.13
2023-02-11T23:11:11.755Z,91.52
2023-02-11T23:15:13.656Z,91.20
2023-02-11T23:19:17.111Z,91.44
2023-02-11T23:23:18.800Z,91.34
2023-02-11T23:27:20.551Z,91.67
2023-02-11T23:31:28.235Z,91.27
2023-02-11T23:35:30.174Z,91.61
2023-02-11T23:39:31.924Z,91.65
2023-02-11T23:43:34.009Z,91.51
2023-02-11T23:47:35.775Z,91.63
2023-02-11T23:51:37.543Z,91.55
2023-02-11T23:55:43.467Z,91.63
2023-02-11T23:59:49.523Z,91.51
